Time;durP1;ratioP1;P1;durP2;ratioP2;P2;SDS_P1;SDS_P2;PMS_P1;PMS_P2;Temp;Humidity;BMP_temperature;BMP_pressure;BME280_temperature;BME280_humidity;BME280_pressure;Samples;Min_cycle;Max_cycle;Signal;HPM_P1;HPM_P2
2021/10/29 00:01:46;;;;;;;75.38;34.72;;;;;;;3.59;100.00;98392.91;5047317;28;20043;-88
2021/10/29 00:04:11;;;;;;;65.95;33.30;;;;;;;3.61;100.00;98408.72;5048347;28;20025;-88
2021/10/29 00:06:37;;;;;;;69.53;33.85;;;;;;;3.54;100.00;98400.03;5052267;28;20032;-88
2021/10/29 00:09:03;;;;;;;64.88;30.67;;;;;;;3.56;100.00;98398.25;5053550;28;20032;-89
2021/10/29 00:11:29;;;;;;;59.55;31.45;;;;;;;3.60;100.00;98402.56;5042202;28;20039;-88
2021/10/29 00:13:54;;;;;;;70.13;31.75;;;;;;;3.57;100.00;98401.78;5053976;28;20040;-88
2021/10/29 00:16:20;;;;;;;62.15;31.33;;;;;;;3.44;100.00;98384.41;5046378;28;20036;-89
2021/10/29 00:18:46;;;;;;;62.17;32.80;;;;;;;3.36;100.00;98383.69;5080722;28;20054;-89
2021/10/29 00:21:11;;;;;;;66.72;33.67;;;;;;;3.32;100.00;98388.19;5042984;28;20458;-88
2021/10/29 00:23:37;;;;;;;64.82;32.20;;;;;;;3.39;100.00;98389.78;5068067;28;20059;-89
2021/10/29 00:26:04;;;;;;;66.45;33.58;;;;;;;3.24;100.00;98371.56;5034819;28;20544;-88
2021/10/29 00:28:30;;;;;;;65.63;31.45;;;;;;;3.30;100.00;98376.75;5085960;28;20028;-88
2021/10/29 00:30:56;;;;;;;45.85;23.70;;;;;;;3.43;100.00;98393.22;5046481;28;20017;-88
2021/10/29 00:33:21;;;;;;;36.80;20.42;;;;;;;3.17;100.00;98359.38;5055360;28;20029;-88
2021/10/29 00:35:47;;;;;;;43.42;21.45;;;;;;;3.06;100.00;98366.66;5052331;28;20062;-88
2021/10/29 00:38:13;;;;;;;38.38;19.27;;;;;;;3.08;100.00;98370.13;5047650;28;20535;-87
2021/10/29 00:40:39;;;;;;;40.03;20.85;;;;;;;3.21;100.00;98376.94;5071314;28;20547;-88
2021/10/29 00:43:10;;;;;;;47.08;20.27;;;;;;;3.26;100.00;98385.66;5078331;28;20502;-88
2021/10/29 00:45:36;;;;;;;49.42;24.90;;;;;;;3.20;100.00;98370.75;5047212;28;20117;-88
2021/10/29 00:48:02;;;;;;;38.85;20.17;;;;;;;3.18;100.00;98371.69;5088205;28;20028;-88
2021/10/29 00:50:28;;;;;;;40.13;20.92;;;;;;;3.06;100.00;98358.72;5070889;28;20033;-86
2021/10/29 00:52:54;;;;;;;38.50;19.98;;;;;;;3.16;100.00;98379.69;5070071;28;20098;-88
2021/10/29 00:55:20;;;;;;;38.10;20.27;;;;;;;3.17;100.00;98365.53;5059605;28;20032;-87
2021/10/29 00:57:46;;;;;;;38.60;21.33;;;;;;;3.08;100.00;98362.19;5070479;28;20087;-88
2021/10/29 01:00:12;;;;;;;43.45;22.42;;;;;;;3.06;100.00;98366.66;5037433;28;20033;-88
2021/10/29 01:02:39;;;;;;;41.67;20.60;;;;;;;3.11;100.00;98368.31;5037629;28;20115;-88
2021/10/29 01:05:05;;;;;;;36.88;21.40;;;;;;;3.09;100.00;98369.22;5104571;28;20025;-88
2021/10/29 01:07:32;;;;;;;38.15;19.90;;;;;;;3.05;100.00;98360.50;5072507;28;20025;-88
2021/10/29 01:09:57;;;;;;;37.70;17.23;;;;;;;2.93;100.00;98350.16;5082946;28;20113;-88
2021/10/29 01:12:23;;;;;;;38.30;18.75;;;;;;;2.98;100.00;98364.19;5073677;28;20059;-88
2021/10/29 01:14:56;;;;;;;34.17;18.45;;;;;;;2.97;100.00;98356.25;5072798;28;20111;-87
2021/10/29 01:17:23;;;;;;;35.35;17.70;;;;;;;3.00;100.00;98359.72;5075251;28;20035;-87
2021/10/29 01:19:51;;;;;;;31.85;17.15;;;;;;;3.11;100.00;98360.38;5075912;28;20021;-89
2021/10/29 01:22:17;;;;;;;30.48;17.02;;;;;;;3.12;100.00;98353.31;5103773;28;20115;-89
2021/10/29 01:24:46;;;;;;;36.28;18.90;;;;;;;3.20;100.00;98364.59;5070293;28;20415;-87
2021/10/29 01:27:14;;;;;;;34.58;16.90;;;;;;;3.20;100.00;98352.25;5069586;28;20032;-89
2021/10/29 01:29:40;;;;;;;29.27;16.73;;;;;;;3.20;100.00;98359.31;5071240;28;20021;-89
2021/10/29 01:32:07;;;;;;;33.67;17.42;;;;;;;3.09;100.00;98341.03;5119560;27;20036;-89
2021/10/29 01:34:35;;;;;;;33.55;16.25;;;;;;;3.11;100.00;98354.22;5070725;28;20054;-89
2021/10/29 01:37:04;;;;;;;29.58;16.95;;;;;;;2.91;100.00;98341.41;5071133;28;20025;-90
2021/10/29 01:39:30;;;;;;;29.83;17.55;;;;;;;2.84;100.00;98333.59;5077903;28;20140;-89
2021/10/29 01:41:55;;;;;;;34.22;17.17;;;;;;;2.86;100.00;98321.25;5036957;28;20064;-89
2021/10/29 01:44:21;;;;;;;35.28;18.58;;;;;;;2.87;100.00;98328.25;5033867;28;20071;-88
2021/10/29 01:46:47;;;;;;;38.20;20.27;;;;;;;2.82;100.00;98330.13;5033719;28;20025;-88
2021/10/29 01:49:12;;;;;;;38.58;19.65;;;;;;;2.82;100.00;98348.63;5037144;28;20078;-88
2021/10/29 01:51:38;;;;;;;40.17;20.85;;;;;;;2.62;100.00;98334.00;5036258;28;20036;-88
2021/10/29 01:54:03;;;;;;;41.55;21.33;;;;;;;2.51;100.00;98325.41;5035812;28;20087;-88
2021/10/29 01:56:29;;;;;;;50.40;23.92;;;;;;;2.43;100.00;98324.66;5036289;28;20111;-86
2021/10/29 01:58:55;;;;;;;53.05;24.38;;;;;;;2.43;100.00;98332.56;5035991;28;20020;-88
2021/10/29 02:01:20;;;;;;;48.45;24.63;;;;;;;2.34;100.00;98330.09;5036321;28;20028;-89
2021/10/29 02:03:46;;;;;;;49.88;26.10;;;;;;;2.30;100.00;98331.06;5036012;28;20112;-88
2021/10/29 02:06:11;;;;;;;61.03;27.98;;;;;;;2.33;100.00;98330.13;5056060;28;20091;-89
2021/10/29 02:08:37;;;;;;;66.47;27.65;;;;;;;2.37;100.00;98330.03;5041378;28;20009;-89
2021/10/29 02:11:03;;;;;;;57.10;25.90;;;;;;;2.31;100.00;98327.50;5057237;28;20044;-88
2021/10/29 02:13:29;;;;;;;53.55;25.55;;;;;;;2.45;100.00;98346.63;5040226;28;20028;-87
2021/10/29 02:15:54;;;;;;;47.05;23.45;;;;;;;2.41;100.00;98339.66;5041038;28;20029;-89
2021/10/29 02:18:20;;;;;;;47.03;22.52;;;;;;;2.38;100.00;98329.16;5040114;28;20108;-89
2021/10/29 02:20:46;;;;;;;42.97;20.17;;;;;;;2.35;100.00;98318.66;5037568;28;20409;-88
2021/10/29 02:23:13;;;;;;;36.70;18.98;;;;;;;2.32;100.00;98323.97;5040083;28;20024;-88
2021/10/29 02:25:43;;;;;;;39.17;20.08;;;;;;;2.23;100.00;98308.31;5040996;28;20029;-87
2021/10/29 02:28:10;;;;;;;35.05;18.33;;;;;;;2.52;100.00;98348.25;5041231;28;20093;-89
2021/10/29 02:30:35;;;;;;;40.00;18.98;;;;;;;2.50;100.00;98325.41;5057381;28;20025;-89
2021/10/29 02:33:01;;;;;;;38.83;18.08;;;;;;;2.53;100.00;98333.28;5040507;28;20078;-88
2021/10/29 02:35:26;;;;;;;35.97;17.33;;;;;;;2.51;100.00;98340.38;5041755;28;20021;-88
2021/10/29 02:37:52;;;;;;;39.58;18.58;;;;;;;2.38;100.00;98315.94;5039226;28;20519;-88
2021/10/29 02:40:18;;;;;;;39.08;18.60;;;;;;;2.47;100.00;98322.84;5044647;28;20055;-86
2021/10/29 02:42:43;;;;;;;42.00;18.08;;;;;;;2.53;100.00;98323.59;5044781;28;20056;-87
2021/10/29 02:45:09;;;;;;;38.47;20.23;;;;;;;2.51;100.00;98324.53;5041838;28;20033;-88
2021/10/29 02:47:34;;;;;;;39.72;20.10;;;;;;;2.55;100.00;98316.50;5054970;28;20107;-87
2021/10/29 02:50:00;;;;;;;47.95;22.67;;;;;;;2.61;100.00;98326.13;5057631;28;20032;-88
2021/10/29 02:52:26;;;;;;;49.55;21.10;;;;;;;2.46;100.00;98310.56;5045444;28;20078;-88
2021/10/29 02:54:51;;;;;;;43.63;21.30;;;;;;;2.61;100.00;98331.41;5049970;28;20025;-86
2021/10/29 02:57:17;;;;;;;43.33;21.73;;;;;;;2.49;100.00;98311.34;5042120;28;20053;-87
2021/10/29 02:59:43;;;;;;;45.70;23.23;;;;;;;2.45;100.00;98332.56;5062931;28;20094;-86
2021/10/29 03:02:08;;;;;;;72.82;30.02;;;;;;;2.37;100.00;98327.41;5060353;28;20412;-88
2021/10/29 03:04:34;;;;;;;125.97;43.80;;;;;;;2.26;100.00;98307.38;5046959;28;20036;-87
2021/10/29 03:06:59;;;;;;;55.35;27.55;;;;;;;2.26;100.00;98317.94;5056356;28;20025;-87
2021/10/29 03:09:25;;;;;;;85.85;37.90;;;;;;;2.25;100.00;98327.59;5040828;28;20033;-87
2021/10/29 03:11:50;;;;;;;72.28;31.92;;;;;;;2.26;100.00;98324.09;5048319;28;20115;-87
2021/10/29 03:14:16;;;;;;;79.78;33.50;;;;;;;2.32;100.00;98323.97;5052463;28;20117;-86
2021/10/29 03:16:41;;;;;;;69.15;29.30;;;;;;;2.30;100.00;98320.50;5065652;28;20016;-87
2021/10/29 03:19:07;;;;;;;59.78;27.33;;;;;;;2.29;100.00;98317.88;5050691;28;20031;-87
2021/10/29 03:21:43;;;;;;;88.68;31.42;;;;;;;2.36;100.00;98333.59;5046938;28;20021;-87
2021/10/29 03:24:08;;;;;;;95.28;33.58;;;;;;;2.35;100.00;98328.31;5064848;28;20024;-86
2021/10/29 03:26:34;;;;;;;89.78;33.30;;;;;;;2.42;100.00;98322.06;5048381;28;20414;-88
2021/10/29 03:29:07;;;;;;;86.10;35.33;;;;;;;2.50;100.00;98349.19;5051780;28;20008;-85
2021/10/29 03:31:33;;;;;;;103.70;42.63;;;;;;;2.40;100.00;98348.47;5042507;28;21087;-86
2021/10/29 03:33:58;;;;;;;97.72;36.80;;;;;;;2.42;100.00;98329.97;5055680;28;20029;-87
2021/10/29 03:36:24;;;;;;;88.18;36.05;;;;;;;2.36;100.00;98330.97;5046560;28;20051;-87
2021/10/29 03:41:23;;;;;;;83.53;33.83;;;;;;;2.49;100.00;98324.53;5064678;28;20060;-86
2021/10/29 03:46:29;;;;;;;77.93;28.88;;;;;;;2.71;100.00;98339.13;5072135;28;20024;-87
2021/10/29 03:51:23;;;;;;;75.55;29.25;;;;;;;2.67;100.00;98320.72;5060035;28;20132;-87
2021/10/29 03:56:24;;;;;;;95.68;36.72;;;;;;;2.84;100.00;98333.59;5056829;28;20492;-87
2021/10/29 03:58:51;;;;;;;100.50;39.20;;;;;;;2.74;100.00;98327.63;5076207;28;20032;-88
2021/10/29 04:01:17;;;;;;;92.75;38.35;;;;;;;2.86;100.00;98334.47;5074516;28;20036;-88
2021/10/29 04:03:44;;;;;;;119.50;41.55;;;;;;;2.96;100.00;98346.56;5047770;28;20028;-87
2021/10/29 04:06:18;;;;;;;135.18;43.50;;;;;;;3.09;100.00;98345.44;5041303;28;20052;-86
2021/10/29 04:08:44;;;;;;;327.98;42.25;;;;;;;2.91;100.00;98303.53;5044231;28;20036;-87
2021/10/29 04:11:10;;;;;;;115.22;42.03;;;;;;;3.05;100.00;98331.41;5043086;28;20033;-86
2021/10/29 04:13:40;;;;;;;377.10;48.42;;;;;;;3.25;100.00;98344.25;5047929;28;20028;-86
2021/10/29 04:16:06;;;;;;;523.15;51.00;;;;;;;3.21;100.00;98332.88;5044172;28;20059;-86
2021/10/29 04:18:36;;;;;;;224.40;45.20;;;;;;;3.11;100.00;98327.78;5078389;28;20029;-86
2021/10/29 04:21:02;;;;;;;151.68;43.03;;;;;;;3.02;100.00;98335.88;5064660;28;20025;-88
2021/10/29 04:23:27;;;;;;;157.43;42.10;;;;;;;2.89;100.00;98310.63;5048281;28;20031;-86
2021/10/29 04:26:44;;;;;;;126.90;43.80;;;;;;;3.18;100.00;98345.25;5037190;28;20025;-86
2021/10/29 04:29:13;;;;;;;172.35;39.67;;;;;;;2.90;100.00;98330.84;5058222;28;20071;-86
2021/10/29 04:31:50;;;;;;;244.10;39.17;;;;;;;2.98;100.00;98339.50;5049398;28;20028;-86
2021/10/29 04:34:20;;;;;;;452.13;45.35;;;;;;;3.03;100.00;98342.94;5051530;28;20483;-85
2021/10/29 04:36:47;;;;;;;347.23;41.42;;;;;;;3.03;100.00;98335.88;5045097;28;20131;-87
2021/10/29 04:39:16;;;;;;;213.27;36.78;;;;;;;3.05;100.00;98351.69;5048265;28;20420;-87
2021/10/29 04:41:43;;;;;;;113.75;33.53;;;;;;;2.88;100.00;98344.09;5056250;28;20032;-86
2021/10/29 04:44:10;;;;;;;122.78;36.50;;;;;;;2.85;100.00;98351.22;5055901;28;20036;-87
2021/10/29 04:46:35;;;;;;;177.23;49.45;;;;;;;2.72;100.00;98329.44;5056985;28;20522;-86
2021/10/29 04:49:02;;;;;;;330.58;56.05;;;;;;;2.90;100.00;98344.06;5075208;28;20040;-85
2021/10/29 04:51:28;;;;;;;254.77;53.53;;;;;;;2.72;100.00;98317.09;5062130;28;20512;-87
2021/10/29 04:53:57;;;;;;;468.10;76.45;;;;;;;2.77;100.00;98332.84;5061492;28;20089;-86
2021/10/29 04:56:22;;;;;;;240.73;66.63;;;;;;;2.70;100.00;98340.03;5060960;28;20021;-84
2021/10/29 04:58:48;;;;;;;256.88;64.38;;;;;;;2.63;100.00;98348.97;5061168;28;20419;-88
2021/10/29 05:01:17;;;;;;;279.98;62.55;;;;;;;2.53;100.00;98320.97;5066361;28;20055;-88
2021/10/29 05:03:54;;;;;;;386.83;66.18;;;;;;;2.58;100.00;98334.97;5064933;28;20016;-87
2021/10/29 05:06:20;;;;;;;383.83;60.47;;;;;;;2.42;100.00;98319.41;5059867;28;20594;-86
2021/10/29 05:08:45;;;;;;;240.93;60.78;;;;;;;2.39;100.00;98307.16;5061789;28;20067;-86
2021/10/29 05:11:11;;;;;;;268.05;62.88;;;;;;;2.51;100.00;98341.25;5061341;28;20028;-89
2021/10/29 05:13:41;;;;;;;389.50;66.95;;;;;;;2.31;100.00;98316.94;5079364;28;20084;-88
2021/10/29 05:16:16;;;;;;;302.33;60.83;;;;;;;2.04;100.00;98262.00;5057987;28;20445;-90
2021/10/29 05:18:53;;;;;;;317.10;63.22;;;;;;;2.28;100.00;98298.53;5061355;28;20121;-88
2021/10/29 05:21:19;;;;;;;323.88;57.97;;;;;;;2.34;100.00;98327.44;5063746;28;20071;-87
2021/10/29 05:23:47;;;;;;;341.27;57.33;;;;;;;2.00;100.00;98284.06;5062075;28;20032;-83
2021/10/29 05:26:12;;;;;;;462.80;65.75;;;;;;;2.42;100.00;98354.63;5052520;28;20104;-76
2021/10/29 05:28:38;;;;;;;289.75;61.15;;;;;;;2.55;100.00;98358.75;5053375;28;20119;-78
2021/10/29 05:31:04;;;;;;;262.38;54.33;;;;;;;2.68;100.00;98370.88;5071184;28;20414;-81
2021/10/29 05:33:30;;;;;;;175.23;51.70;;;;;;;2.76;100.00;98372.50;5053181;28;20033;-80
2021/10/29 05:35:55;;;;;;;198.18;49.88;;;;;;;2.89;100.00;98374.03;5053178;28;20035;-79
2021/10/29 05:38:21;;;;;;;249.07;92.65;;;;;;;2.92;100.00;98363.41;5069690;28;20025;-80
2021/10/29 05:40:47;;;;;;;149.85;49.45;;;;;;;3.09;100.00;98369.22;5066222;28;20110;-80
2021/10/29 05:43:12;;;;;;;121.40;41.80;;;;;;;3.19;100.00;98374.34;5040360;28;20043;-80
2021/10/29 05:45:38;;;;;;;132.35;47.75;;;;;;;3.32;100.00;98380.25;5040116;28;20035;-79
2021/10/29 05:48:06;;;;;;;245.68;71.75;;;;;;;3.32;100.00;98374.97;5040518;28;20110;-79
2021/10/29 05:50:33;;;;;;;120.68;48.47;;;;;;;3.52;100.00;98367.47;5041835;28;20025;-79
2021/10/29 05:53:01;;;;;;;139.88;48.05;;;;;;;3.67;100.00;98383.03;5056223;28;20031;-79
2021/10/29 05:55:26;;;;;;;221.32;53.78;;;;;;;3.76;100.00;98377.53;5044562;28;20070;-80
2021/10/29 05:58:07;;;;;;;213.02;53.70;;;;;;;3.76;100.00;98377.53;5057740;28;20057;-79
2021/10/29 06:00:33;;;;;;;200.98;51.78;;;;;;;3.81;100.00;98374.81;5031239;28;20031;-80
2021/10/29 06:03:09;;;;;;;190.50;51.67;;;;;;;3.98;100.00;98388.50;5095531;28;20029;-79
2021/10/29 06:05:35;;;;;;;168.43;41.95;;;;;;;3.90;100.00;98389.59;5084299;28;20021;-78
2021/10/29 06:08:10;;;;;;;132.65;44.55;;;;;;;4.13;100.00;98395.22;5041916;28;20041;-80
2021/10/29 06:10:42;;;;;;;158.75;39.78;;;;;;;4.27;100.00;98396.69;5042724;28;20550;-81
2021/10/29 06:13:11;;;;;;;144.60;38.17;;;;;;;4.36;100.00;98387.66;5052560;28;20031;-74
2021/10/29 06:15:38;;;;;;;240.60;41.13;;;;;;;4.53;100.00;98390.75;5039996;28;20062;-76
2021/10/29 06:18:22;;;;;;;404.73;50.03;;;;;;;4.65;100.00;98398.38;5061705;28;20115;-74
2021/10/29 06:20:49;;;;;;;305.45;43.20;;;;;;;4.57;100.00;98395.06;5047837;28;20178;-74
2021/10/29 06:23:14;;;;;;;332.77;47.17;;;;;;;4.73;100.00;98417.63;5053681;28;20484;-76
2021/10/29 06:26:20;;;;;;;339.15;46.80;;;;;;;4.52;100.00;98410.22;5045246;28;20027;-89
2021/10/29 06:28:47;;;;;;;255.82;46.25;;;;;;;4.39;100.00;98392.88;5061236;28;20488;-89
2021/10/29 06:31:15;;;;;;;142.75;44.22;;;;;;;4.09;100.00;98332.69;5305311;22;21355;-90
2021/10/29 06:33:41;;;;;;;209.20;46.35;;;;;;;4.68;100.00;98373.59;5069383;28;20052;-75
2021/10/29 06:36:16;;;;;;;172.15;40.40;;;;;;;5.14;100.00;98418.31;5054722;28;20032;-76
2021/10/29 06:38:42;;;;;;;183.35;43.80;;;;;;;5.24;100.00;98423.34;5069532;28;20020;-77
2021/10/29 06:41:08;;;;;;;167.43;45.00;;;;;;;5.25;100.00;98418.94;5069533;28;20077;-79
2021/10/29 06:43:50;;;;;;;159.27;43.80;;;;;;;5.21;100.00;98407.53;5052761;28;20032;-77
2021/10/29 07:02:13;;;;;;;313.92;45.30;;;;;;;4.99;100.00;98409.00;5074575;28;20032;-83
2021/10/29 07:45:23;;;;;;;138.38;49.30;;;;;;;6.55;100.00;98407.13;5073530;28;20507;-84
2021/10/29 07:47:50;;;;;;;129.93;48.17;;;;;;;6.25;100.00;98402.75;5052858;28;20024;-82
2021/10/29 07:50:19;;;;;;;128.45;48.20;;;;;;;6.30;100.00;98387.56;5056230;28;20031;-83
2021/10/29 07:52:46;;;;;;;122.35;49.97;;;;;;;6.82;100.00;98370.78;5072693;28;20463;-83
2021/10/29 07:55:14;;;;;;;177.18;66.65;;;;;;;7.28;97.91;98392.22;5052518;28;20032;-82
2021/10/29 07:57:41;;;;;;;144.93;55.28;;;;;;;7.63;95.83;98393.59;5052265;28;20097;-83
2021/10/29 08:00:09;;;;;;;139.85;56.25;;;;;;;8.04;92.27;98400.03;5055950;28;20495;-82
2021/10/29 08:02:38;;;;;;;127.30;55.05;;;;;;;8.70;87.83;98383.22;5047875;28;20108;-82
2021/10/29 08:05:06;;;;;;;132.45;53.05;;;;;;;9.11;84.09;98387.66;5055133;28;20384;-83
2021/10/29 08:07:35;;;;;;;123.10;52.42;;;;;;;9.60;80.11;98393.53;5055168;28;20036;-82
2021/10/29 08:10:05;;;;;;;125.47;54.38;;;;;;;10.52;75.83;98391.06;5054735;28;20541;-83
2021/10/29 08:12:36;;;;;;;124.07;56.05;;;;;;;10.36;75.16;98388.25;5051341;28;20040;-77
2021/10/29 08:15:04;;;;;;;124.60;54.78;;;;;;;11.65;69.73;98398.66;5058421;28;20082;-78
2021/10/29 08:17:32;;;;;;;115.70;56.25;;;;;;;12.44;65.96;98395.22;5055001;28;20032;-75
2021/10/29 08:19:59;;;;;;;128.65;56.03;;;;;;;12.64;63.70;98385.19;5055356;28;20035;-78
2021/10/29 08:22:25;;;;;;;134.68;56.67;;;;;;;12.82;63.42;98400.25;5055556;28;20028;-77
2021/10/29 08:24:51;;;;;;;160.82;65.13;;;;;;;14.06;58.10;98382.00;5072684;28;20551;-75
2021/10/29 08:27:17;;;;;;;144.20;62.80;;;;;;;14.86;55.22;98373.28;5056082;28;20115;-82
2021/10/29 08:29:42;;;;;;;116.10;55.28;;;;;;;16.42;51.13;98370.47;5058348;28;20028;-79
2021/10/29 08:32:10;;;;;;;110.20;53.28;;;;;;;16.53;49.62;98365.16;5073602;28;20048;-77
2021/10/29 08:34:36;;;;;;;100.18;48.33;;;;;;;16.93;48.44;98366.69;5074329;28;20058;-79
2021/10/29 08:37:04;;;;;;;93.47;47.53;;;;;;;16.73;49.03;98370.00;5076190;28;20055;-88
2021/10/29 08:39:31;;;;;;;96.60;44.88;;;;;;;17.25;48.20;98369.69;5063699;28;20023;-78
2021/10/29 08:45:31;;;;;;;67.80;37.03;;;;;;;17.78;47.02;98343.94;5132479;27;20409;-80
2021/10/29 08:48:02;;;;;;;63.33;34.75;;;;;;;17.98;45.95;98347.78;5093986;28;20401;-86
2021/10/29 08:50:28;;;;;;;57.92;32.35;;;;;;;17.69;46.69;98348.22;5118651;28;20029;-83
2021/10/29 08:52:54;;;;;;;49.97;29.40;;;;;;;17.63;46.76;98343.28;5104799;28;20094;-79
2021/10/29 08:55:33;;;;;;;56.22;30.52;;;;;;;18.53;45.00;98347.81;5097212;28;20466;-79
2021/10/29 08:58:11;;;;;;;54.92;29.15;;;;;;;18.74;44.64;98345.19;5105442;28;20038;-79
2021/10/29 09:00:43;;;;;;;50.95;27.83;;;;;;;18.81;44.09;98335.56;5124652;28;20015;-74
2021/10/29 09:03:41;;;;;;;45.97;27.83;;;;;;;19.28;42.98;98318.03;5093645;28;20051;-73
2021/10/29 09:09:29;;;;;;;48.72;29.75;;;;;;;20.66;40.82;98328.47;5087125;28;20040;-83
2021/10/29 09:31:31;;;;;;;45.75;26.38;;;;;;;23.18;35.52;98286.78;5110103;28;20041;-74
2021/10/29 09:33:57;;;;;;;50.78;29.23;;;;;;;23.62;34.55;98278.69;5091182;28;20106;-75
2021/10/29 09:36:28;;;;;;;51.28;34.25;;;;;;;23.89;33.92;98269.47;5125743;28;20466;-75
2021/10/29 09:39:08;;;;;;;47.80;31.87;;;;;;;23.67;34.11;98262.66;5106075;28;20038;-75
2021/10/29 09:41:38;;;;;;;54.35;34.55;;;;;;;21.75;36.89;98277.38;5106686;28;20035;-75
2021/10/29 09:44:06;;;;;;;58.17;34.97;;;;;;;21.57;37.32;98280.00;5103755;28;20036;-75
2021/10/29 09:46:51;;;;;;;52.50;35.92;;;;;;;22.52;36.09;98282.59;5104683;28;20379;-75
2021/10/29 09:49:24;;;;;;;54.35;34.25;;;;;;;23.26;34.57;98263.31;5106615;28;20571;-74
2021/10/29 09:52:07;;;;;;;53.53;36.53;;;;;;;23.00;34.86;98266.81;5125234;28;20500;-74
2021/10/29 09:54:50;;;;;;;51.72;33.83;;;;;;;24.31;33.29;98266.84;5091442;28;20097;-75
2021/10/29 09:57:22;;;;;;;53.63;37.28;;;;;;;24.12;33.13;98266.06;5094966;28;20039;-77
2021/10/29 10:00:00;;;;;;;54.28;36.30;;;;;;;24.30;32.41;98255.06;5093386;28;20402;-75
2021/10/29 10:02:28;;;;;;;59.63;37.50;;;;;;;24.31;32.57;98253.19;5092988;28;20023;-75
2021/10/29 10:04:55;;;;;;;59.00;39.58;;;;;;;24.45;32.11;98249.84;5076474;28;20020;-75
2021/10/29 10:07:26;;;;;;;56.42;36.70;;;;;;;24.45;32.30;98241.63;5093299;28;20035;-75
2021/10/29 10:09:55;;;;;;;42.80;29.90;;;;;;;23.83;32.83;98235.47;5092511;28;20080;-74
2021/10/29 10:12:22;;;;;;;56.75;38.75;;;;;;;23.81;33.29;98229.28;5091974;28;20028;-74
2021/10/29 10:14:56;;;;;;;72.55;33.53;;;;;;;24.71;32.10;98231.44;5092715;28;20106;-76
2021/10/29 10:17:22;;;;;;;51.15;26.55;;;;;;;24.82;31.21;98213.91;5075997;28;20118;-74
2021/10/29 10:19:56;;;;;;;41.00;26.63;;;;;;;25.43;30.67;98214.31;5111314;28;20421;-75
2021/10/29 10:22:25;;;;;;;26.67;14.68;;;;;;;25.72;29.86;98213.78;5092775;28;20031;-75
2021/10/29 10:25:02;;;;;;;24.35;16.58;;;;;;;25.40;29.96;98205.56;5093111;28;20028;-75
2021/10/29 10:30:39;;;;;;;;;;;;;;;24.87;30.82;98206.88;5094895;28;20039;-75
2021/10/29 10:42:26;;;;;;;22.17;15.68;;;;;;;28.06;26.51;98186.81;5094957;28;20107;-75
2021/10/29 10:47:07;;;;;;;31.77;21.05;;;;;;;27.81;26.66;98173.28;5111118;28;20032;-75
2021/10/29 10:49:48;;;;;;;29.25;19.50;;;;;;;27.79;26.43;98169.88;5091621;28;20462;-76
2021/10/29 10:52:23;;;;;;;31.43;20.77;;;;;;;27.64;26.29;98174.53;5093171;28;20077;-76
2021/10/29 10:54:57;;;;;;;19.27;13.23;;;;;;;28.65;24.52;98163.72;5076548;28;20016;-76
2021/10/29 11:00:45;;;;;;;17.15;12.70;;;;;;;29.37;23.75;98147.13;5109586;28;20031;-75
2021/10/29 11:11:06;;;;;;;16.13;11.88;;;;;;;27.25;25.51;98141.72;5109966;28;20032;-75
2021/10/29 11:13:44;;;;;;;21.00;14.90;;;;;;;28.25;24.90;98143.06;5091850;28;20039;-76
2021/10/29 11:16:30;;;;;;;17.50;11.32;;;;;;;27.71;25.12;98136.13;5091424;28;20106;-76
2021/10/29 11:19:28;;;;;;;20.15;10.20;;;;;;;27.80;25.10;98126.75;5090876;28;20035;-76
2021/10/29 11:21:56;;;;;;;15.70;10.25;;;;;;;27.03;25.06;98123.34;5091619;28;20023;-75
2021/10/29 11:24:33;;;;;;;21.95;8.65;;;;;;;27.76;24.04;98125.41;5074147;28;20024;-76
2021/10/29 11:27:06;;;;;;;16.92;8.65;;;;;;;26.18;25.48;98121.66;5074619;28;20132;-75
2021/10/29 11:29:47;;;;;;;12.57;8.07;;;;;;;27.12;24.63;98107.63;5091737;28;20190;-74
2021/10/29 11:32:16;;;;;;;12.85;7.40;;;;;;;27.90;24.13;98110.81;5091825;28;20019;-75
2021/10/29 11:34:42;;;;;;;13.07;9.68;;;;;;;28.87;23.50;98102.09;5091399;28;20463;-75
2021/10/29 11:37:08;;;;;;;10.68;7.00;;;;;;;28.86;23.41;98099.53;5091266;28;20035;-75
2021/10/29 11:39:35;;;;;;;14.48;8.15;;;;;;;29.36;23.16;98098.53;5091228;28;20035;-75
2021/10/29 11:42:00;;;;;;;12.52;7.32;;;;;;;29.43;23.24;98100.31;5109547;28;20053;-75
2021/10/29 11:44:29;;;;;;;9.45;6.90;;;;;;;28.81;23.46;98091.00;5109263;28;20035;-75
2021/10/29 11:46:56;;;;;;;9.23;6.95;;;;;;;28.70;24.18;98102.56;5090134;28;20421;-75
2021/10/29 11:49:25;;;;;;;13.80;7.88;;;;;;;28.71;23.94;98096.84;5073732;28;20035;-76
2021/10/29 11:51:52;;;;;;;18.90;10.25;;;;;;;28.71;24.03;98101.50;5124886;27;20035;-75
2021/10/29 11:54:26;;;;;;;15.98;9.10;;;;;;;28.87;23.76;98090.22;5090625;28;20037;-76
2021/10/29 11:57:15;;;;;;;22.30;9.43;;;;;;;28.98;24.06;98093.28;5074867;28;20034;-75
2021/10/29 12:07:27;;;;;;;16.73;11.50;;;;;;;27.82;25.17;98086.16;5093552;28;20602;-75
2021/10/29 12:10:06;;;;;;;12.85;8.13;;;;;;;28.55;24.42;98083.28;5073208;28;20027;-76
2021/10/29 12:12:33;;;;;;;22.25;16.80;;;;;;;29.46;23.47;98077.84;5073523;28;20031;-75
2021/10/29 12:15:14;;;;;;;10.30;8.40;;;;;;;29.42;23.36;98071.03;5108507;28;20055;-74
2021/10/29 12:18:27;;;;;;;14.18;8.00;;;;;;;28.92;24.47;98065.69;5075311;28;20035;-75
2021/10/29 12:20:40;;;;;;;13.05;8.30;;;;;;;28.58;24.32;98071.88;5080166;28;20066;-74
2021/10/29 12:23:17;;;;;;;10.77;8.05;;;;;;;29.15;24.06;98077.34;5073817;28;20039;-75
2021/10/29 13:03:46;;;;;;;21.15;10.57;;;;;;;26.69;26.73;98062.47;5093968;28;20759;-76
2021/10/29 13:06:18;;;;;;;58.15;35.40;;;;;;;27.48;25.62;98061.97;5074147;28;20087;-76
2021/10/29 13:08:48;;;;;;;10.85;6.90;;;;;;;27.54;25.27;98049.34;5090735;28;20026;-76
2021/10/29 13:11:15;;;;;;;51.92;38.00;;;;;;;27.77;25.34;98055.63;5090286;28;20031;-76
2021/10/29 13:13:44;;;;;;;15.52;10.27;;;;;;;28.19;24.75;98054.91;5089848;28;20103;-75
2021/10/29 13:16:14;;;;;;;26.17;17.25;;;;;;;28.56;24.70;98045.59;5090749;28;20091;-76
2021/10/29 13:27:04;;;;;;;26.27;12.48;;;;;;;28.60;24.48;98047.78;5094596;28;20347;-75
2021/10/29 13:50:29;;;;;;;11.00;8.13;;;;;;;28.10;25.10;98034.91;5098044;28;20043;-75
2021/10/29 13:51:42;;;;;;;10.02;7.85;;;;;;;26.15;27.23;98040.56;5091577;28;20168;-75
2021/10/29 13:59:46;;;;;;;17.45;11.48;;;;;;;24.47;30.32;98050.81;5097567;28;20088;-79
2021/10/29 14:29:31;;;;;;;34.75;13.40;;;;;;;22.96;34.03;98078.97;5097535;28;20085;-75
2021/10/29 14:32:01;;;;;;;29.05;12.48;;;;;;;23.02;33.68;98071.00;5097042;28;20023;-75
2021/10/29 14:34:35;;;;;;;31.15;13.85;;;;;;;22.84;34.54;98082.97;5095516;28;20015;-75
2021/10/29 14:37:13;;;;;;;56.75;17.23;;;;;;;22.90;34.10;98072.28;5095836;28;20024;-75
2021/10/29 14:42:36;;;;;;;114.95;22.30;;;;;;;22.19;35.11;98081.47;5097554;28;20031;-75
2021/10/29 14:45:15;;;;;;;56.17;14.38;;;;;;;21.70;36.27;98082.75;5090672;28;20127;-75
2021/10/29 14:48:00;;;;;;;37.92;11.98;;;;;;;21.10;37.01;98095.03;5075712;28;20487;-76
2021/10/29 15:02:18;;;;;;;44.65;13.70;;;;;;;17.68;45.77;98121.91;5046168;28;20085;-75
2021/10/29 15:28:19;;;;;;;139.82;54.38;;;;;;;14.20;59.02;98142.53;5090186;28;20232;-73
2021/10/29 15:41:52;;;;;;;179.45;71.97;;;;;;;13.24;64.25;98137.19;5076167;28;20118;-74
2021/10/29 15:44:25;;;;;;;179.13;70.32;;;;;;;12.98;65.51;98127.19;5081333;28;20411;-74
2021/10/29 15:47:02;;;;;;;;;;;;;;;12.89;66.37;98130.41;5056512;28;20635;-74
2021/10/29 15:49:41;;;;;;;122.82;57.63;;;;;;;12.78;66.59;98136.47;5079819;28;19977;-75
2021/10/29 15:52:13;;;;;;;264.17;120.70;;;;;;;12.77;67.26;98140.09;5053273;28;20115;-75
2021/10/29 15:54:44;;;;;;;225.82;104.05;;;;;;;12.58;68.10;98135.94;5060370;28;20020;-77
2021/10/29 15:57:11;;;;;;;215.65;99.43;;;;;;;12.45;70.47;98133.16;5059797;28;20037;-74
2021/10/29 15:59:53;;;;;;;128.77;66.75;;;;;;;12.33;70.38;98145.47;5065177;28;20486;-73
2021/10/29 16:02:57;;;;;;;117.15;57.75;;;;;;;12.04;71.57;98115.94;5054591;28;20098;-77